Time;durP1;ratioP1;P1;durP2;ratioP2;P2;SDS_P1;SDS_P2;PMS_P1;PMS_P2;Temp;Humidity;BMP_temperature;BMP_pressure;BME280_temperature;BME280_humidity;BME280_pressure;Samples;Min_cycle;Max_cycle;Signal;HPM_P1;HPM_P2
2022/09/01 00:01:47;;;;;;;1.05;0.63;;;22.60;47.20;;;;;;5034759;28;20458;-80
2022/09/01 00:04:15;;;;;;;0.68;0.68;;;22.50;47.20;;;;;;5034620;28;20446;-83
2022/09/01 00:06:42;;;;;;;0.95;0.85;;;22.50;47.30;;;;;;5034468;28;20029;-83
2022/09/01 00:09:12;;;;;;;0.70;0.70;;;22.50;47.30;;;;;;5035406;28;20099;-81
2022/09/01 00:11:39;;;;;;;0.70;0.70;;;22.50;47.30;;;;;;5034863;28;20034;-80
2022/09/01 00:14:07;;;;;;;0.60;0.60;;;22.40;47.30;;;;;;5017825;28;20025;-78
2022/09/01 00:16:33;;;;;;;1.67;0.90;;;22.40;47.40;;;;;;5002051;28;20025;-79
2022/09/01 00:18:59;;;;;;;0.98;0.88;;;22.40;47.40;;;;;;5017992;28;20030;-80
2022/09/01 00:21:32;;;;;;;0.73;0.73;;;22.40;47.50;;;;;;5018483;28;20113;-79
2022/09/01 00:23:59;;;;;;;1.85;0.80;;;22.30;47.50;;;;;;5034575;28;20454;-79
2022/09/01 00:26:24;;;;;;;1.15;0.90;;;22.30;47.50;;;;;;5001588;28;20025;-79
2022/09/01 00:28:50;;;;;;;1.08;0.93;;;22.30;47.50;;;;;;5017926;28;20041;-79
2022/09/01 00:31:18;;;;;;;1.27;0.80;;;22.20;47.50;;;;;;5034603;28;20060;-79
2022/09/01 00:33:46;;;;;;;1.45;0.80;;;22.20;47.60;;;;;;5017712;28;20120;-79
2022/09/01 00:36:12;;;;;;;0.93;0.85;;;22.20;47.60;;;;;;5033812;28;20057;-80
2022/09/01 00:38:38;;;;;;;0.82;0.82;;;22.20;47.60;;;;;;5033671;28;20551;-82
2022/09/01 00:41:06;;;;;;;1.05;0.80;;;22.20;47.70;;;;;;5035466;28;20029;-81
2022/09/01 00:43:48;;;;;;;0.88;0.77;;;22.10;47.70;;;;;;5034608;28;20103;-81
2022/09/01 00:46:20;;;;;;;0.88;0.80;;;22.10;47.70;;;;;;5035834;28;20031;-80
2022/09/01 00:49:14;;;;;;;0.98;0.75;;;22.10;47.70;;;;;;5033945;28;20025;-80
2022/09/01 00:51:46;;;;;;;1.70;0.70;;;22.00;47.80;;;;;;5034648;28;20109;-80
2022/09/01 00:54:20;;;;;;;0.63;0.63;;;22.00;47.70;;;;;;5035777;28;20041;-88
2022/09/01 00:56:48;;;;;;;0.70;0.70;;;22.00;47.80;;;;;;5035465;28;20033;-88
2022/09/01 00:59:17;;;;;;;1.10;0.90;;;21.90;48.40;;;;;;5018833;28;20276;-88
2022/09/01 01:01:43;;;;;;;1.27;0.70;;;21.90;47.80;;;;;;5035118;28;20038;-87
2022/09/01 01:04:13;;;;;;;0.70;0.70;;;21.90;47.90;;;;;;5036015;28;20462;-87
2022/09/01 01:07:07;;;;;;;0.80;0.80;;;21.90;47.90;;;;;;5036254;28;20030;-89
2022/09/01 01:09:37;;;;;;;1.20;0.90;;;21.80;48.00;;;;;;5035426;28;20041;-87
2022/09/01 01:12:05;;;;;;;0.77;0.77;;;21.80;48.00;;;;;;5035882;28;20512;-88
2022/09/01 01:14:33;;;;;;;0.80;0.80;;;21.80;48.00;;;;;;5035977;28;20088;-88
2022/09/01 01:16:59;;;;;;;1.67;0.98;;;21.80;48.00;;;;;;5018510;28;20034;-87
2022/09/01 01:23:04;;;;;;;0.85;0.85;;;21.70;48.10;;;;;;5035759;28;20079;-87
2022/09/01 01:25:57;;;;;;;0.90;0.80;;;21.70;48.10;;;;;;5018836;28;20026;-87
2022/09/01 01:28:34;;;;;;;0.68;0.68;;;21.60;48.20;;;;;;5034470;28;20455;-87
2022/09/01 01:31:11;;;;;;;0.80;0.80;;;21.60;48.10;;;;;;5018247;28;20061;-89
2022/09/01 01:33:46;;;;;;;0.80;0.80;;;21.60;48.20;;;;;;5034579;28;20025;-87
2022/09/01 01:36:29;;;;;;;0.75;0.75;;;21.50;48.20;;;;;;5034234;28;20025;-87
2022/09/01 01:39:01;;;;;;;1.10;0.85;;;21.60;48.30;;;;;;5034303;28;20053;-87
2022/09/01 01:41:30;;;;;;;0.77;0.77;;;21.50;48.20;;;;;;5036280;28;20417;-88
2022/09/01 01:44:03;;;;;;;1.02;0.90;;;21.50;48.30;;;;;;5017990;28;20038;-88
2022/09/01 01:46:32;;;;;;;1.23;0.95;;;21.50;48.30;;;;;;5035328;28;20022;-89
2022/09/01 01:49:01;;;;;;;0.95;0.80;;;21.50;48.30;;;;;;5035133;28;20033;-87
2022/09/01 01:51:29;;;;;;;0.70;0.70;;;21.50;48.40;;;;;;5018225;28;20033;-90
2022/09/01 01:53:55;;;;;;;0.80;0.73;;;21.40;48.30;;;;;;5018446;28;20112;-88
2022/09/01 01:56:24;;;;;;;0.95;0.90;;;21.40;48.40;;;;;;5034879;28;20087;-88
2022/09/01 01:58:55;;;;;;;1.45;0.80;;;21.40;48.40;;;;;;5017698;28;20026;-87
2022/09/01 02:01:24;;;;;;;0.77;0.77;;;21.40;48.40;;;;;;5005486;28;20064;-86
2022/09/01 02:03:53;;;;;;;0.70;0.70;;;21.40;48.50;;;;;;5016957;28;20033;-87
2022/09/01 02:06:23;;;;;;;0.95;0.90;;;21.40;48.50;;;;;;5033968;28;20453;-87
2022/09/01 02:08:55;;;;;;;1.02;0.88;;;21.30;48.50;;;;;;5018118;28;20032;-88
2022/09/01 02:11:21;;;;;;;1.05;0.93;;;21.30;48.50;;;;;;5018439;28;20057;-89
2022/09/01 02:13:48;;;;;;;1.25;1.00;;;21.30;48.50;;;;;;5033775;28;20033;-88
2022/09/01 02:16:15;;;;;;;1.13;0.88;;;21.30;48.60;;;;;;5017215;28;20029;-87
2022/09/01 02:18:46;;;;;;;1.10;1.00;;;21.30;48.60;;;;;;5033913;28;20025;-89
2022/09/01 02:21:18;;;;;;;0.70;0.70;;;21.30;48.60;;;;;;5034190;28;20048;-88
2022/09/01 02:23:49;;;;;;;0.80;0.80;;;21.20;48.60;;;;;;5018604;28;20045;-89
2022/09/01 02:26:17;;;;;;;0.80;0.80;;;21.20;48.60;;;;;;5033826;28;20026;-84
2022/09/01 02:28:48;;;;;;;0.70;0.70;;;21.20;48.70;;;;;;5018049;28;20025;-89
2022/09/01 02:31:14;;;;;;;0.90;0.90;;;21.20;48.70;;;;;;5033704;28;20036;-88
2022/09/01 02:33:44;;;;;;;0.80;0.80;;;21.20;48.70;;;;;;5017187;28;20116;-88
2022/09/01 02:36:14;;;;;;;0.82;0.82;;;21.20;48.80;;;;;;5033092;28;20030;-87
2022/09/01 02:38:43;;;;;;;0.77;0.75;;;21.20;48.80;;;;;;5017757;28;20110;-88
2022/09/01 02:41:10;;;;;;;0.95;0.80;;;21.10;48.70;;;;;;5017697;28;20037;-89
2022/09/01 02:43:37;;;;;;;0.80;0.77;;;21.10;48.70;;;;;;5033346;28;20113;-86
2022/09/01 02:46:05;;;;;;;1.05;0.65;;;21.10;48.80;;;;;;5018869;28;20036;-86
2022/09/01 02:48:36;;;;;;;0.68;0.68;;;21.10;48.80;;;;;;5017901;28;20026;-90
2022/09/01 02:51:04;;;;;;;0.80;0.80;;;21.10;48.80;;;;;;5017318;28;20025;-85
2022/09/01 02:53:33;;;;;;;0.88;0.88;;;21.10;48.90;;;;;;5033801;28;20044;-89
2022/09/01 02:56:08;;;;;;;1.38;0.90;;;21.10;48.90;;;;;;5033666;28;20052;-92
2022/09/01 02:58:39;;;;;;;1.75;0.90;;;21.00;48.90;;;;;;5038979;28;20064;-88
2022/09/01 03:01:19;;;;;;;0.70;0.70;;;21.00;48.90;;;;;;5044603;28;20029;-89
2022/09/01 03:03:47;;;;;;;1.17;0.77;;;21.00;48.90;;;;;;5046468;28;20030;-90
2022/09/01 03:06:13;;;;;;;0.73;0.73;;;21.00;48.90;;;;;;5025854;28;20029;-89
2022/09/01 03:08:39;;;;;;;1.00;0.90;;;21.00;48.90;;;;;;5038739;28;20394;-90
2022/09/01 03:11:09;;;;;;;1.15;0.82;;;21.00;49.00;;;;;;5033921;28;20033;-88
2022/09/01 03:13:37;;;;;;;0.70;0.70;;;20.90;48.90;;;;;;5017404;28;20029;-89
2022/09/01 03:16:05;;;;;;;0.82;0.80;;;20.90;48.90;;;;;;5036894;28;20067;-88
2022/09/01 03:18:32;;;;;;;0.70;0.70;;;20.90;49.00;;;;;;5037957;28;20049;-87
2022/09/01 03:20:58;;;;;;;0.70;0.70;;;20.90;49.00;;;;;;5037061;28;20092;-89
2022/09/01 03:23:26;;;;;;;0.77;0.77;;;20.90;49.00;;;;;;5037315;28;20033;-86
2022/09/01 03:25:52;;;;;;;1.02;0.90;;;20.80;49.00;;;;;;5020960;28;20443;-87
2022/09/01 03:28:18;;;;;;;1.00;0.90;;;20.80;49.00;;;;;;5021186;28;20068;-89
2022/09/01 03:30:47;;;;;;;1.25;0.85;;;20.80;49.00;;;;;;5037538;28;20017;-88
2022/09/01 03:33:15;;;;;;;0.70;0.70;;;20.80;49.00;;;;;;5037332;28;20121;-86
2022/09/01 03:35:42;;;;;;;0.70;0.70;;;20.80;49.00;;;;;;5037088;28;20036;-87
2022/09/01 03:38:11;;;;;;;0.60;0.60;;;20.80;49.10;;;;;;5037016;28;20025;-88
2022/09/01 03:40:38;;;;;;;0.75;0.70;;;20.80;49.10;;;;;;5037266;28;20484;-88
2022/09/01 03:43:11;;;;;;;1.10;1.00;;;20.70;49.10;;;;;;5037074;28;20033;-86
2022/09/01 03:45:38;;;;;;;0.75;0.75;;;20.80;49.20;;;;;;5036827;28;20130;-88
2022/09/01 03:48:07;;;;;;;1.00;0.95;;;20.80;49.10;;;;;;5019991;28;20021;-87
2022/09/01 03:50:42;;;;;;;0.93;0.73;;;20.70;49.10;;;;;;5036440;28;20022;-87
2022/09/01 03:53:08;;;;;;;1.00;0.90;;;20.70;49.20;;;;;;5020239;28;20033;-89
2022/09/01 03:55:36;;;;;;;0.80;0.80;;;20.70;49.10;;;;;;5037115;28;20033;-86
2022/09/01 03:58:09;;;;;;;0.95;0.95;;;20.60;49.10;;;;;;5036495;28;20053;-88
2022/09/01 04:00:42;;;;;;;0.80;0.80;;;20.70;49.20;;;;;;5019943;28;20039;-85
2022/09/01 04:03:11;;;;;;;0.77;0.77;;;20.70;49.90;;;;;;5036717;28;20068;-89
2022/09/01 04:05:41;;;;;;;1.00;0.90;;;20.60;49.20;;;;;;5019750;28;20056;-88
2022/09/01 04:08:10;;;;;;;0.70;0.70;;;20.60;49.20;;;;;;5036668;28;20034;-85
2022/09/01 04:10:48;;;;;;;0.80;0.80;;;20.60;49.20;;;;;;5020385;28;20375;-88
2022/09/01 04:13:21;;;;;;;0.80;0.80;;;20.60;49.30;;;;;;5037025;28;20029;-87
2022/09/01 04:15:47;;;;;;;0.80;0.80;;;20.60;49.30;;;;;;5039387;28;20048;-88
2022/09/01 04:18:20;;;;;;;0.68;0.68;;;20.50;49.20;;;;;;5048071;28;20018;-85
2022/09/01 04:20:53;;;;;;;0.95;0.88;;;20.50;49.30;;;;;;5043792;28;20063;-85
2022/09/01 04:23:32;;;;;;;1.10;1.00;;;20.50;49.30;;;;;;5050344;28;20064;-88
2022/09/01 04:26:10;;;;;;;1.10;1.00;;;20.50;49.30;;;;;;5048025;28;20045;-87
2022/09/01 04:28:39;;;;;;;0.93;0.90;;;20.50;49.30;;;;;;5041475;28;20040;-87
2022/09/01 04:31:09;;;;;;;0.73;0.73;;;20.40;49.30;;;;;;5035718;28;20021;-86
2022/09/01 04:33:40;;;;;;;1.73;0.98;;;20.40;49.30;;;;;;5019466;28;20044;-88
2022/09/01 04:36:18;;;;;;;1.17;1.08;;;20.40;49.30;;;;;;5018907;28;20034;-89
2022/09/01 04:38:46;;;;;;;0.70;0.70;;;20.40;49.40;;;;;;5035388;28;20056;-87
2022/09/01 04:41:16;;;;;;;1.13;0.90;;;20.40;49.40;;;;;;5035700;28;20034;-89
2022/09/01 04:43:46;;;;;;;0.70;0.70;;;20.30;49.40;;;;;;5035791;28;20545;-90
2022/09/01 04:46:16;;;;;;;1.33;0.90;;;20.30;49.40;;;;;;5019861;28;20025;-88
2022/09/01 04:48:44;;;;;;;0.95;0.90;;;20.30;50.10;;;;;;5002531;28;20420;-86
2022/09/01 04:51:14;;;;;;;0.68;0.68;;;20.30;49.40;;;;;;5035829;28;20025;-88
2022/09/01 04:53:50;;;;;;;0.82;0.82;;;20.30;49.50;;;;;;5020257;28;20021;-89
2022/09/01 04:56:19;;;;;;;0.90;0.80;;;20.30;49.50;;;;;;5019831;28;20037;-90
2022/09/01 04:58:54;;;;;;;1.48;1.00;;;20.30;49.50;;;;;;5020010;28;20133;-89
2022/09/01 05:01:23;;;;;;;0.90;0.88;;;20.20;49.50;;;;;;5035715;28;20052;-89
2022/09/01 05:03:57;;;;;;;1.10;1.00;;;20.20;49.50;;;;;;5018937;28;20033;-90
2022/09/01 05:06:38;;;;;;;1.60;1.10;;;20.20;49.60;;;;;;5035901;28;20421;-88
2022/09/01 05:09:04;;;;;;;0.80;0.80;;;20.20;49.50;;;;;;5035413;28;20037;-86
2022/09/01 05:12:09;;;;;;;0.73;0.73;;;20.20;49.60;;;;;;5030830;28;20041;-87
2022/09/01 05:14:42;;;;;;;0.98;0.85;;;20.20;49.60;;;;;;5019849;28;20038;-87
2022/09/01 05:17:10;;;;;;;1.17;0.90;;;20.20;49.70;;;;;;5035193;28;20030;-86
2022/09/01 05:19:38;;;;;;;1.15;1.05;;;20.10;49.60;;;;;;5034632;28;20033;-86
2022/09/01 05:22:06;;;;;;;0.73;0.70;;;20.10;49.70;;;;;;5018925;28;20042;-87
2022/09/01 05:24:33;;;;;;;1.00;0.82;;;20.10;49.60;;;;;;5039080;28;20374;-87
2022/09/01 05:27:06;;;;;;;1.23;1.13;;;20.10;50.30;;;;;;5050367;28;20052;-86
2022/09/01 05:29:37;;;;;;;0.75;0.75;;;20.10;49.70;;;;;;5048594;28;20076;-87
2022/09/01 05:32:08;;;;;;;0.80;0.80;;;20.10;49.70;;;;;;5020821;28;20037;-87
2022/09/01 05:34:37;;;;;;;1.25;0.90;;;20.00;49.70;;;;;;5035563;28;20188;-84
2022/09/01 05:37:07;;;;;;;0.70;0.70;;;20.00;49.70;;;;;;5036335;28;20041;-86
2022/09/01 05:39:36;;;;;;;0.73;0.70;;;20.00;49.70;;;;;;5029772;28;20045;-87
2022/09/01 05:42:06;;;;;;;1.15;0.88;;;20.00;49.70;;;;;;5035191;28;20045;-88
2022/09/01 05:44:34;;;;;;;1.45;0.90;;;20.00;49.80;;;;;;5018344;28;20045;-89
2022/09/01 05:47:02;;;;;;;1.17;1.02;;;20.00;49.80;;;;;;5017694;28;20026;-85
2022/09/01 05:49:31;;;;;;;1.52;1.00;;;20.00;49.80;;;;;;5033934;28;20197;-90
2022/09/01 05:52:00;;;;;;;1.23;1.10;;;20.00;49.80;;;;;;5034685;28;20026;-92
2022/09/01 05:54:28;;;;;;;1.10;1.00;;;19.90;49.80;;;;;;5018157;28;20018;-91
2022/09/01 05:56:57;;;;;;;0.90;0.90;;;20.00;49.80;;;;;;5018221;28;20026;-87
2022/09/01 05:59:26;;;;;;;0.80;0.80;;;19.90;49.80;;;;;;5034438;28;20017;-86
2022/09/01 06:02:12;;;;;;;0.80;0.80;;;19.90;49.80;;;;;;5034478;28;20049;-89
2022/09/01 06:04:42;;;;;;;0.98;0.80;;;19.90;49.80;;;;;;5017224;28;20083;-87
2022/09/01 06:07:16;;;;;;;0.75;0.75;;;19.90;49.90;;;;;;5033973;28;20025;-88
2022/09/01 06:09:47;;;;;;;1.52;0.80;;;19.80;49.80;;;;;;5034216;28;20026;-89
2022/09/01 06:12:16;;;;;;;1.17;1.00;;;19.80;49.90;;;;;;5034351;28;20029;-88
2022/09/01 06:14:43;;;;;;;0.95;0.85;;;19.80;49.90;;;;;;5018059;28;20052;-88
2022/09/01 06:17:10;;;;;;;1.02;0.95;;;19.80;49.90;;;;;;5017416;28;20096;-88
2022/09/01 06:19:38;;;;;;;0.90;0.90;;;19.80;49.90;;;;;;5017785;28;20025;-88
2022/09/01 06:22:05;;;;;;;1.15;1.00;;;19.80;49.90;;;;;;5033408;28;20469;-89
2022/09/01 06:24:31;;;;;;;0.95;0.80;;;19.80;49.90;;;;;;5018377;28;20033;-88
2022/09/01 06:26:58;;;;;;;0.80;0.80;;;19.80;50.00;;;;;;5033931;28;20048;-89
2022/09/01 06:29:24;;;;;;;0.93;0.90;;;19.80;50.00;;;;;;5033877;28;20122;-89
2022/09/01 06:31:51;;;;;;;1.00;0.90;;;19.80;50.00;;;;;;5033695;28;20466;-89
2022/09/01 06:34:18;;;;;;;1.02;0.95;;;19.80;50.00;;;;;;5000709;28;20029;-89
2022/09/01 06:36:47;;;;;;;0.88;0.82;;;19.80;50.10;;;;;;5033241;28;20117;-83
2022/09/01 06:39:20;;;;;;;1.65;1.13;;;19.80;50.10;;;;;;4999622;28;20144;-83
2022/09/01 06:41:51;;;;;;;1.70;1.10;;;19.80;50.10;;;;;;5016376;28;20037;-83
2022/09/01 06:44:21;;;;;;;0.80;0.80;;;19.80;50.10;;;;;;5016065;28;20025;-82
2022/09/01 06:47:07;;;;;;;0.88;0.88;;;19.80;50.10;;;;;;5018098;28;20120;-88
2022/09/01 06:49:35;;;;;;;1.13;0.93;;;19.80;50.10;;;;;;5001025;28;20084;-83
2022/09/01 06:52:07;;;;;;;1.67;1.00;;;19.80;50.20;;;;;;5020947;28;20038;-86
2022/09/01 06:54:34;;;;;;;1.27;1.10;;;19.70;50.20;;;;;;5036500;28;20029;-86
2022/09/01 06:57:02;;;;;;;0.98;0.90;;;19.70;50.20;;;;;;5036081;28;20021;-83
2022/09/01 06:59:30;;;;;;;0.80;0.80;;;19.80;50.30;;;;;;5020232;28;20041;-83
2022/09/01 07:02:02;;;;;;;0.90;0.90;;;19.80;50.30;;;;;;5020077;28;20040;-83
2022/09/01 07:04:48;;;;;;;0.70;0.70;;;19.80;50.30;;;;;;5006090;28;20038;-83
2022/09/01 07:07:15;;;;;;;0.98;0.98;;;19.70;50.20;;;;;;5036736;28;20494;-83
2022/09/01 07:10:13;;;;;;;0.98;0.90;;;19.80;50.30;;;;;;5031718;28;20570;-86
2022/09/01 07:12:46;;;;;;;0.82;0.82;;;19.80;50.30;;;;;;5021467;28;20035;-83
2022/09/01 07:15:16;;;;;;;0.90;0.88;;;19.80;50.30;;;;;;5019754;28;20033;-84
2022/09/01 07:17:48;;;;;;;1.35;1.00;;;19.80;50.40;;;;;;5036188;28;20359;-83
2022/09/01 07:20:30;;;;;;;0.98;0.90;;;19.80;50.40;;;;;;5035892;28;20036;-83
2022/09/01 07:22:57;;;;;;;1.42;0.90;;;19.80;50.50;;;;;;5035872;28;20075;-84
2022/09/01 07:25:22;;;;;;;0.77;0.77;;;19.80;50.40;;;;;;5019500;28;20026;-82
2022/09/01 07:28:08;;;;;;;0.82;0.82;;;19.80;50.40;;;;;;5037085;28;20056;-83
2022/09/01 07:34:28;;;;;;;0.80;0.80;;;19.80;50.50;;;;;;5036703;28;20151;-86
2022/09/01 07:36:58;;;;;;;0.98;0.90;;;19.80;50.30;;;;;;5020058;28;20326;-86
2022/09/01 07:39:28;;;;;;;0.95;0.82;;;19.80;50.50;;;;;;5019034;28;20485;-82
2022/09/01 07:42:23;;;;;;;1.40;1.02;;;19.80;50.50;;;;;;5035230;28;20037;-82
2022/09/01 07:45:10;;;;;;;0.70;0.70;;;19.90;50.50;;;;;;5039775;28;20061;-84
2022/09/01 07:48:05;;;;;;;1.00;0.90;;;19.90;50.50;;;;;;5041697;28;20044;-90
2022/09/01 07:50:36;;;;;;;1.17;0.98;;;19.90;50.50;;;;;;5034137;28;20026;-90
2022/09/01 07:53:03;;;;;;;1.33;0.95;;;19.90;50.50;;;;;;5033848;28;20493;-88
2022/09/01 07:55:30;;;;;;;2.25;1.05;;;19.90;50.60;;;;;;5048964;28;20087;-88
2022/09/01 07:57:58;;;;;;;1.10;0.90;;;20.00;50.60;;;;;;5034279;28;20103;-89
2022/09/01 08:00:25;;;;;;;0.90;0.90;;;19.90;50.50;;;;;;5021904;28;20391;-89
2022/09/01 08:02:56;;;;;;;1.30;0.90;;;20.00;50.60;;;;;;5039048;28;20037;-89
2022/09/01 08:05:27;;;;;;;1.48;0.93;;;20.00;50.60;;;;;;5035995;28;20018;-88
2022/09/01 08:07:54;;;;;;;1.45;0.90;;;20.00;50.60;;;;;;5037168;28;20450;-88
2022/09/01 08:10:23;;;;;;;0.85;0.80;;;20.10;50.60;;;;;;5037822;28;20398;-91
2022/09/01 08:12:49;;;;;;;1.08;0.90;;;20.10;50.60;;;;;;5038444;28;20041;-90
2022/09/01 08:15:16;;;;;;;1.33;0.90;;;20.10;50.60;;;;;;5025142;28;20048;-90
2022/09/01 08:17:43;;;;;;;0.93;0.90;;;20.10;51.30;;;;;;5039026;28;20022;-91
2022/09/01 08:20:11;;;;;;;1.30;1.00;;;20.10;50.60;;;;;;5019800;28;20029;-88
2022/09/01 08:22:59;;;;;;;0.82;0.82;;;20.10;50.60;;;;;;5036685;28;20043;-93
2022/09/01 08:25:33;;;;;;;0.93;0.90;;;20.20;50.70;;;;;;5036264;28;20381;-90
2022/09/01 08:28:01;;;;;;;0.77;0.77;;;20.20;50.70;;;;;;5019862;28;20116;-87
2022/09/01 08:30:28;;;;;;;1.10;0.90;;;20.20;50.60;;;;;;5037121;28;20120;-88
2022/09/01 08:32:55;;;;;;;1.23;1.00;;;20.20;50.60;;;;;;5038698;28;20056;-88
2022/09/01 08:35:21;;;;;;;1.00;0.90;;;20.20;50.60;;;;;;5022717;28;20036;-85
2022/09/01 08:37:47;;;;;;;0.90;0.90;;;20.30;50.60;;;;;;5050995;28;20025;-90
2022/09/01 08:40:17;;;;;;;1.00;0.90;;;20.30;50.50;;;;;;5050106;28;20049;-89
2022/09/01 08:42:50;;;;;;;1.33;0.80;;;20.40;50.60;;;;;;5029938;28;20468;-85
2022/09/01 08:45:18;;;;;;;1.05;0.80;;;20.40;50.50;;;;;;5041683;28;20036;-86
2022/09/01 08:47:45;;;;;;;0.77;0.77;;;20.50;50.40;;;;;;5038380;28;20025;-84
2022/09/01 08:50:12;;;;;;;1.45;1.00;;;20.60;50.40;;;;;;5035949;28;20033;-88
2022/09/01 08:53:06;;;;;;;;;;;20.60;50.40;;;;;;5036288;28;20051;-87
2022/09/01 08:55:44;;;;;;;0.70;0.70;;;20.60;50.10;;;;;;5034724;28;19959;-86
2022/09/01 08:58:16;;;;;;;2.05;1.00;;;20.70;50.20;;;;;;5034487;28;20049;-82
2022/09/01 09:01:33;;;;;;;1.55;0.90;;;20.70;50.10;;;;;;5035539;28;20045;-85
2022/09/01 09:04:34;;;;;;;1.55;1.00;;;20.80;50.10;;;;;;5034622;28;20033;-85
2022/09/01 09:07:22;;;;;;;1.77;0.82;;;20.90;50.10;;;;;;5034739;28;20075;-85
2022/09/01 09:10:10;;;;;;;0.60;0.60;;;21.00;50.00;;;;;;5035067;28;20497;-87
2022/09/01 09:12:53;;;;;;;1.52;0.93;;;21.10;50.00;;;;;;5033800;28;20033;-89
2022/09/01 09:15:32;;;;;;;0.70;0.70;;;21.10;49.80;;;;;;5035404;28;20455;-87
2022/09/01 09:18:23;;;;;;;0.80;0.80;;;21.20;49.80;;;;;;5034873;28;20025;-92
2022/09/01 09:20:50;;;;;;;0.80;0.80;;;21.30;49.80;;;;;;5024739;28;20041;-89
2022/09/01 09:23:27;;;;;;;1.00;0.80;;;21.40;49.60;;;;;;5003071;28;20080;-86
2022/09/01 09:25:52;;;;;;;1.00;0.90;;;21.50;49.70;;;;;;5035245;28;20056;-88
2022/09/01 09:28:18;;;;;;;0.95;0.80;;;21.60;49.50;;;;;;5002381;28;20026;-91
2022/09/01 09:30:44;;;;;;;0.80;0.80;;;21.70;49.40;;;;;;5035101;28;20048;-90
2022/09/01 09:33:35;;;;;;;0.70;0.70;;;21.80;49.40;;;;;;5038256;28;20048;-88
2022/09/01 09:36:21;;;;;;;1.08;0.80;;;21.90;49.40;;;;;;5035029;28;20064;-90
2022/09/01 09:39:15;;;;;;;2.05;0.93;;;21.90;49.30;;;;;;5034511;28;20057;-89
2022/09/01 09:41:42;;;;;;;0.60;0.60;;;22.00;49.20;;;;;;5034798;28;20025;-89
2022/09/01 09:44:29;;;;;;;0.60;0.60;;;22.10;49.00;;;;;;5017363;28;20029;-91
2022/09/01 09:46:56;;;;;;;1.77;0.80;;;22.30;49.10;;;;;;5034618;28;20025;-86
2022/09/01 09:49:31;;;;;;;0.70;0.70;;;22.30;48.90;;;;;;5033834;28;20492;-84
2022/09/01 09:52:09;;;;;;;2.22;0.85;;;22.40;48.90;;;;;;5034983;28;20029;-90
2022/09/01 09:54:37;;;;;;;0.70;0.70;;;22.50;48.90;;;;;;5034216;28;20477;-86
2022/09/01 09:57:12;;;;;;;1.00;0.90;;;22.60;48.70;;;;;;5033269;28;20071;-85
2022/09/01 10:00:09;;;;;;;1.00;0.70;;;22.70;48.70;;;;;;5017114;28;20466;-89
2022/09/01 10:02:43;;;;;;;0.63;0.52;;;22.80;48.70;;;;;;5034169;28;20037;-86
2022/09/01 10:05:45;;;;;;;1.30;0.80;;;22.90;48.50;;;;;;5033801;28;20501;-85
2022/09/01 10:08:36;;;;;;;0.50;0.50;;;23.00;48.50;;;;;;5043346;28;20029;-87
2022/09/01 10:11:04;;;;;;;0.50;0.50;;;23.10;48.30;;;;;;5023445;28;20121;-84
2022/09/01 10:13:31;;;;;;;0.77;0.68;;;23.20;48.20;;;;;;5034162;28;20487;-86
2022/09/01 10:16:23;;;;;;;1.55;0.70;;;23.30;48.10;;;;;;5017692;28;20402;-86
2022/09/01 10:18:51;;;;;;;0.60;0.60;;;23.40;48.10;;;;;;5033355;28;20041;-84
2022/09/01 10:21:34;;;;;;;1.10;0.70;;;23.60;47.90;;;;;;5036185;28;20119;-85
2022/09/01 10:24:06;;;;;;;0.50;0.50;;;23.60;47.90;;;;;;5038284;28;20042;-86
2022/09/01 10:26:36;;;;;;;0.65;0.65;;;23.70;47.80;;;;;;5043235;28;20026;-88
2022/09/01 10:29:17;;;;;;;0.77;0.50;;;23.80;47.70;;;;;;5033479;28;20025;-84
2022/09/01 10:31:43;;;;;;;0.70;0.70;;;23.90;47.60;;;;;;5034426;28;20083;-84
2022/09/01 10:34:14;;;;;;;0.60;0.60;;;24.00;47.40;;;;;;5016683;28;20025;-84
2022/09/01 10:36:42;;;;;;;1.13;0.80;;;24.10;47.30;;;;;;5032813;28;20040;-84
2022/09/01 10:39:14;;;;;;;0.90;0.60;;;24.20;47.30;;;;;;5016094;28;20394;-84
2022/09/01 10:41:53;;;;;;;0.60;0.60;;;24.30;47.20;;;;;;5032310;28;20083;-84
2022/09/01 10:44:32;;;;;;;0.63;0.60;;;24.40;47.20;;;;;;5032126;28;20036;-83
2022/09/01 10:47:09;;;;;;;0.60;0.60;;;24.50;47.10;;;;;;5032191;28;20040;-83
2022/09/01 10:49:35;;;;;;;0.65;0.65;;;24.60;47.10;;;;;;5032697;28;20037;-84
2022/09/01 10:52:00;;;;;;;0.65;0.65;;;24.70;46.90;;;;;;5015649;28;20026;-83
2022/09/01 10:54:38;;;;;;;0.95;0.70;;;24.80;46.90;;;;;;5032872;28;20438;-85
2022/09/01 10:57:23;;;;;;;0.60;0.60;;;24.90;46.90;;;;;;5032199;28;20030;-85
2022/09/01 10:59:49;;;;;;;0.68;0.60;;;25.00;46.80;;;;;;5033903;28;20060;-84
2022/09/01 11:02:19;;;;;;;0.70;0.70;;;25.10;46.70;;;;;;5033279;28;20172;-86
2022/09/01 11:04:45;;;;;;;0.50;0.50;;;25.10;46.70;;;;;;5034110;28;20087;-82
2022/09/01 11:07:22;;;;;;;0.50;0.50;;;25.20;46.70;;;;;;5032383;28;20025;-84
2022/09/01 11:10:07;;;;;;;0.60;0.60;;;25.30;46.80;;;;;;5033276;28;20026;-85
2022/09/01 11:12:43;;;;;;;0.47;0.47;;;25.30;46.70;;;;;;5033938;28;20112;-84
2022/09/01 11:15:33;;;;;;;0.40;0.40;;;25.40;46.60;;;;;;5034246;28;20040;-83
2022/09/01 11:17:59;;;;;;;0.70;0.60;;;25.40;46.60;;;;;;5032416;28;20026;-83
2022/09/01 11:20:30;;;;;;;0.80;0.63;;;25.50;46.60;;;;;;5016347;28;20048;-86
2022/09/01 11:22:56;;;;;;;0.70;0.70;;;25.60;46.60;;;;;;5032995;28;20037;-86
2022/09/01 11:25:42;;;;;;;0.47;0.47;;;25.70;46.60;;;;;;5033236;28;20168;-84
2022/09/01 11:28:14;;;;;;;0.90;0.60;;;25.70;46.70;;;;;;5032779;28;20105;-85
2022/09/01 11:31:07;;;;;;;0.60;0.60;;;25.70;46.50;;;;;;5033634;28;20029;-85
2022/09/01 11:33:46;;;;;;;0.60;0.60;;;25.80;46.50;;;;;;5033501;28;20033;-85
2022/09/01 11:36:34;;;;;;;0.68;0.60;;;25.80;46.30;;;;;;5034350;28;20033;-85
2022/09/01 11:39:07;;;;;;;0.80;0.63;;;25.80;46.30;;;;;;5035716;28;20145;-84
2022/09/01 11:42:14;;;;;;;0.43;0.43;;;25.90;46.40;;;;;;5035718;28;20109;-85
2022/09/01 11:45:27;;;;;;;0.50;0.50;;;25.90;47.00;;;;;;5034956;28;20502;-85
2022/09/01 11:48:01;;;;;;;0.60;0.60;;;25.90;46.40;;;;;;5030425;28;20096;-84
2022/09/01 11:50:32;;;;;;;1.38;0.50;;;26.00;46.40;;;;;;5035776;28;20084;-84
2022/09/01 11:53:02;;;;;;;1.02;0.60;;;26.00;46.40;;;;;;5035497;28;20481;-85
2022/09/01 11:55:34;;;;;;;0.57;0.57;;;26.10;46.50;;;;;;5035836;28;20060;-84
2022/09/01 11:58:01;;;;;;;0.60;0.60;;;26.10;46.60;;;;;;5035522;28;20473;-85
2022/09/01 12:00:37;;;;;;;0.50;0.50;;;26.10;46.50;;;;;;5019121;28;20041;-84
2022/09/01 12:03:17;;;;;;;0.38;0.38;;;26.10;46.50;;;;;;5036377;28;20048;-84
2022/09/01 12:05:45;;;;;;;0.60;0.60;;;26.10;46.50;;;;;;5036171;28;20025;-85
2022/09/01 12:08:13;;;;;;;0.65;0.50;;;26.10;46.40;;;;;;5036597;28;20021;-85
2022/09/01 12:10:43;;;;;;;0.70;0.70;;;26.10;46.50;;;;;;5035202;28;20026;-85
2022/09/01 12:13:16;;;;;;;0.47;0.47;;;26.10;46.40;;;;;;5035409;28;20160;-85
2022/09/01 12:15:42;;;;;;;0.65;0.57;;;26.20;46.40;;;;;;5035721;28;20025;-84
2022/09/01 12:18:12;;;;;;;0.75;0.68;;;26.20;46.30;;;;;;5036209;28;20450;-85
2022/09/01 12:20:38;;;;;;;0.55;0.55;;;26.20;46.30;;;;;;5036168;28;20100;-85
2022/09/01 12:23:15;;;;;;;0.60;0.60;;;26.20;46.20;;;;;;5034987;28;20124;-85
2022/09/01 12:25:41;;;;;;;2.55;0.80;;;26.20;46.20;;;;;;5035458;28;20032;-84
2022/09/01 12:28:07;;;;;;;0.40;0.40;;;26.20;46.10;;;;;;5019360;28;20034;-85
2022/09/01 12:30:34;;;;;;;0.65;0.65;;;26.30;46.10;;;;;;5038956;28;20063;-85
2022/09/01 12:33:05;;;;;;;0.60;0.60;;;26.20;46.00;;;;;;5040375;28;20148;-85
2022/09/01 12:35:31;;;;;;;0.60;0.60;;;26.30;46.10;;;;;;5041873;28;20033;-85
2022/09/01 12:38:36;;;;;;;0.40;0.40;;;26.30;46.10;;;;;;5022809;28;20037;-85
2022/09/01 12:41:01;;;;;;;0.60;0.60;;;26.30;46.20;;;;;;5034301;28;20076;-83
2022/09/01 12:43:37;;;;;;;0.80;0.70;;;26.30;45.90;;;;;;5017542;28;20059;-85
2022/09/01 12:46:05;;;;;;;0.50;0.50;;;26.30;45.80;;;;;;5025292;28;20366;-86
2022/09/01 12:48:34;;;;;;;0.98;0.65;;;26.30;45.60;;;;;;5019443;28;20025;-84
2022/09/01 12:51:22;;;;;;;0.52;0.52;;;26.30;45.50;;;;;;5019080;28;20512;-86
2022/09/01 12:53:59;;;;;;;1.42;0.80;;;26.30;45.50;;;;;;5036382;28;20150;-85
2022/09/01 12:56:33;;;;;;;0.70;0.60;;;26.30;45.40;;;;;;5021242;28;20026;-84
2022/09/01 12:59:19;;;;;;;0.60;0.60;;;26.30;45.30;;;;;;5022973;28;20438;-86
2022/09/01 13:01:45;;;;;;;0.60;0.60;;;26.30;45.20;;;;;;5051757;28;20366;-85
2022/09/01 13:04:13;;;;;;;0.98;0.70;;;26.30;45.10;;;;;;5034343;28;20040;-86
2022/09/01 13:06:39;;;;;;;0.75;0.75;;;26.30;45.10;;;;;;5045139;28;20040;-85
2022/09/01 13:09:05;;;;;;;0.65;0.65;;;26.30;45.00;;;;;;5036853;28;20017;-86
2022/09/01 13:11:31;;;;;;;1.05;0.80;;;26.40;45.00;;;;;;5035206;28;20392;-85
2022/09/01 13:14:00;;;;;;;0.55;0.55;;;26.30;44.80;;;;;;5002322;28;20038;-84
2022/09/01 13:16:26;;;;;;;0.57;0.57;;;26.30;44.60;;;;;;5018684;28;20497;-85
2022/09/01 13:18:52;;;;;;;1.10;0.63;;;26.40;44.70;;;;;;5034148;28;20097;-86
2022/09/01 13:21:17;;;;;;;0.50;0.50;;;26.40;44.60;;;;;;5035543;28;20030;-86
2022/09/01 13:23:43;;;;;;;0.52;0.52;;;26.40;44.60;;;;;;5018172;28;20041;-86